Time;durP1;ratioP1;P1;durP2;ratioP2;P2;SDS_P1;SDS_P2;PMS_P1;PMS_P2;Temp;Humidity;BMP_temperature;BMP_pressure;BME280_temperature;BME280_humidity;BME280_pressure;Samples;Min_cycle;Max_cycle;Signal;HPM_P1;HPM_P2
2022/01/13 00:00:18;;;;;;;102.93;45.83;;;;;;;;;;5036040;28;20270;-70
2022/01/13 00:03:05;;;;;;;101.33;46.10;;;;;;;;;;5052108;28;20203;-70
2022/01/13 00:05:33;;;;;;;96.33;44.57;;;;;;;;;;5052604;28;20261;-70
2022/01/13 00:08:00;;;;;;;96.77;46.93;;;;;;;;;;5053442;28;20258;-70
2022/01/13 00:10:27;;;;;;;94.20;44.57;;;;;;;;;;5053232;28;20196;-70
2022/01/13 00:13:03;;;;;;;93.80;41.87;;;;;;;;;;5051984;28;20325;-70
2022/01/13 00:18:17;;;;;;;95.83;43.73;;;;;;;;;;5053119;28;20187;-70
2022/01/13 00:25:58;;;;;;;106.40;46.73;;;;;;;;;;5052286;28;20211;-70
2022/01/13 00:28:26;;;;;;;103.07;46.03;;;;;;;;;;5052880;28;20196;-71
2022/01/13 00:30:57;;;;;;;105.33;46.40;;;;;;;;;;5051513;28;20289;-70
2022/01/13 00:33:26;;;;;;;93.93;44.93;;;;;;;;;;5052032;28;20203;-70
2022/01/13 00:35:56;;;;;;;100.60;45.93;;;;;;;;;;5035585;28;20253;-70
2022/01/13 00:38:23;;;;;;;101.70;47.50;;;;;;;;;;5051809;28;20230;-70
2022/01/13 00:40:51;;;;;;;103.43;46.20;;;;;;;;;;5051636;28;20196;-70
2022/01/13 00:43:19;;;;;;;101.23;47.23;;;;;;;;;;5051696;28;20222;-70
2022/01/13 00:45:48;;;;;;;97.20;46.73;;;;;;;;;;5051609;28;20219;-70
2022/01/13 00:48:16;;;;;;;103.77;51.13;;;;;;;;;;5051669;28;20195;-69
2022/01/13 00:50:44;;;;;;;114.83;51.43;;;;;;;;;;5053053;28;20203;-69
2022/01/13 00:53:11;;;;;;;100.43;47.47;;;;;;;;;;5035264;28;20196;-69
2022/01/13 00:58:19;;;;;;;105.30;48.67;;;;;;;;;;5052812;28;20184;-69
2022/01/13 01:00:47;;;;;;;113.80;50.70;;;;;;;;;;5051808;28;20549;-69
2022/01/13 01:03:14;;;;;;;100.87;47.90;;;;;;;;;;5052907;28;20199;-69
2022/01/13 01:05:42;;;;;;;100.40;47.03;;;;;;;;;;5051413;28;20196;-69
2022/01/13 01:08:10;;;;;;;99.27;48.47;;;;;;;;;;5051540;28;20226;-69
2022/01/13 01:10:46;;;;;;;105.43;48.50;;;;;;;;;;5036333;28;20181;-70
2022/01/13 01:13:17;;;;;;;101.73;46.30;;;;;;;;;;5051787;28;20181;-70
2022/01/13 01:15:49;;;;;;;101.30;48.53;;;;;;;;;;5035463;28;20180;-70
2022/01/13 01:29:18;;;;;;;107.17;48.73;;;;;;;;;;5055451;28;20543;-69
2022/01/13 01:31:49;;;;;;;103.43;44.60;;;;;;;;;;5039945;28;20238;-69
2022/01/13 01:34:33;;;;;;;109.33;46.50;;;;;;;;;;5055207;28;20195;-69
2022/01/13 01:37:02;;;;;;;125.27;51.83;;;;;;;;;;5055555;28;20264;-70
2022/01/13 01:39:29;;;;;;;107.07;49.83;;;;;;;;;;5054697;28;20306;-70
2022/01/13 01:41:57;;;;;;;114.93;51.30;;;;;;;;;;5054759;28;20310;-69
2022/01/13 01:44:38;;;;;;;113.13;51.13;;;;;;;;;;5054709;28;20700;-69
2022/01/13 01:47:08;;;;;;;115.07;49.77;;;;;;;;;;5056604;28;20259;-70
2022/01/13 01:49:40;;;;;;;120.00;51.47;;;;;;;;;;5038956;28;20184;-69
2022/01/13 01:52:10;;;;;;;126.27;56.13;;;;;;;;;;5056097;28;20191;-69
2022/01/13 01:54:37;;;;;;;120.73;52.90;;;;;;;;;;5054886;28;20192;-69
2022/01/13 01:57:05;;;;;;;116.30;51.57;;;;;;;;;;5054445;28;20250;-69
2022/01/13 01:59:36;;;;;;;121.93;50.00;;;;;;;;;;5054518;28;20216;-69
2022/01/13 02:02:06;;;;;;;114.10;53.00;;;;;;;;;;5056107;28;20181;-69
2022/01/13 02:04:35;;;;;;;131.83;55.73;;;;;;;;;;5054280;28;20207;-69
2022/01/13 02:07:05;;;;;;;121.57;55.37;;;;;;;;;;5054395;28;20668;-69
2022/01/13 02:09:35;;;;;;;118.23;53.40;;;;;;;;;;5071084;28;20184;-69
2022/01/13 02:12:10;;;;;;;125.33;55.43;;;;;;;;;;5055013;28;20544;-69
2022/01/13 02:14:55;;;;;;;129.73;54.47;;;;;;;;;;5038467;28;20184;-70
2022/01/13 02:17:26;;;;;;;121.33;53.33;;;;;;;;;;5040603;28;20188;-70
2022/01/13 02:19:55;;;;;;;113.30;52.47;;;;;;;;;;5055621;28;20200;-73
2022/01/13 02:22:23;;;;;;;131.43;56.80;;;;;;;;;;5037762;28;20661;-70
2022/01/13 02:24:51;;;;;;;122.17;53.57;;;;;;;;;;5054435;28;20271;-70
2022/01/13 02:27:19;;;;;;;122.17;54.10;;;;;;;;;;5054649;28;20196;-69
2022/01/13 02:29:46;;;;;;;135.43;56.23;;;;;;;;;;5053169;28;20658;-69
2022/01/13 02:32:16;;;;;;;123.17;55.73;;;;;;;;;;5055387;28;20187;-69
2022/01/13 02:34:44;;;;;;;126.20;55.13;;;;;;;;;;5054187;28;20358;-70
2022/01/13 02:37:12;;;;;;;116.33;52.77;;;;;;;;;;5037645;28;20203;-70
2022/01/13 02:39:41;;;;;;;119.83;52.43;;;;;;;;;;5053970;28;20208;-70
2022/01/13 02:42:14;;;;;;;103.10;45.17;;;;;;;;;;5053980;28;20196;-70
2022/01/13 02:50:11;;;;;;;105.97;49.77;;;;;;;;;;5054035;28;20566;-70
2022/01/13 02:52:39;;;;;;;108.80;48.17;;;;;;;;;;5037242;28;20721;-70
2022/01/13 02:55:07;;;;;;;110.87;52.47;;;;;;;;;;5037065;28;20224;-70
2022/01/13 02:57:36;;;;;;;105.70;47.23;;;;;;;;;;5053777;28;20190;-70
2022/01/13 03:00:05;;;;;;;108.43;50.83;;;;;;;;;;5053465;28;20230;-70
2022/01/13 03:02:33;;;;;;;111.23;48.20;;;;;;;;;;5053512;28;20287;-71
2022/01/13 03:05:01;;;;;;;107.93;48.47;;;;;;;;;;5054374;28;20254;-70
2022/01/13 03:07:33;;;;;;;108.93;48.07;;;;;;;;;;5053602;28;20192;-71
2022/01/13 03:10:02;;;;;;;106.27;50.07;;;;;;;;;;5053586;28;20189;-71
2022/01/13 03:12:31;;;;;;;109.23;48.23;;;;;;;;;;5036955;28;20261;-70
2022/01/13 03:14:59;;;;;;;97.57;45.47;;;;;;;;;;5036993;28;20203;-71
2022/01/13 03:17:26;;;;;;;119.33;53.97;;;;;;;;;;5053316;28;20192;-70
2022/01/13 03:19:53;;;;;;;104.50;47.10;;;;;;;;;;5053274;28;20228;-70
2022/01/13 03:22:21;;;;;;;102.37;47.33;;;;;;;;;;5053150;28;20238;-70
2022/01/13 03:24:48;;;;;;;109.80;50.43;;;;;;;;;;5053240;28;20200;-70
2022/01/13 03:27:20;;;;;;;106.93;47.73;;;;;;;;;;5054242;28;20196;-70
2022/01/13 03:29:48;;;;;;;108.53;51.30;;;;;;;;;;5054153;28;20204;-70
2022/01/13 03:32:17;;;;;;;110.07;48.23;;;;;;;;;;5036509;28;20637;-70
2022/01/13 03:34:45;;;;;;;111.73;52.10;;;;;;;;;;5054101;28;20196;-70
2022/01/13 03:37:12;;;;;;;123.23;53.20;;;;;;;;;;5053936;28;20304;-70
2022/01/13 03:39:40;;;;;;;101.90;48.77;;;;;;;;;;5036130;28;20228;-70
2022/01/13 03:42:07;;;;;;;112.13;49.33;;;;;;;;;;5054142;28;20278;-70
2022/01/13 03:44:35;;;;;;;106.93;49.47;;;;;;;;;;5052866;28;20242;-70
2022/01/13 03:47:04;;;;;;;112.27;51.23;;;;;;;;;;5052685;28;20562;-70
2022/01/13 03:49:32;;;;;;;114.47;50.17;;;;;;;;;;5052675;28;20301;-70
2022/01/13 03:52:23;;;;;;;114.07;50.43;;;;;;;;;;5052750;28;20200;-69
2022/01/13 03:55:20;;;;;;;122.30;50.13;;;;;;;;;;5052666;28;20187;-69
2022/01/13 03:58:20;;;;;;;116.27;50.73;;;;;;;;;;5053693;28;20177;-70
2022/01/13 04:01:09;;;;;;;109.07;48.57;;;;;;;;;;5052152;28;20200;-70
2022/01/13 04:03:37;;;;;;;101.87;44.93;;;;;;;;;;5052642;28;20576;-70
2022/01/13 04:06:11;;;;;;;114.07;50.40;;;;;;;;;;5053476;28;20210;-70
2022/01/13 04:08:39;;;;;;;108.30;46.93;;;;;;;;;;5052387;28;20176;-70
2022/01/13 04:11:06;;;;;;;112.70;51.53;;;;;;;;;;5035984;28;20646;-70
2022/01/13 04:13:49;;;;;;;105.97;47.50;;;;;;;;;;5051978;28;20192;-70
2022/01/13 04:16:19;;;;;;;103.80;47.43;;;;;;;;;;5052196;28;20203;-70
2022/01/13 04:18:48;;;;;;;108.90;48.37;;;;;;;;;;5036001;28;20177;-70
2022/01/13 04:21:17;;;;;;;112.57;50.40;;;;;;;;;;5035561;28;20549;-69
2022/01/13 04:23:45;;;;;;;101.40;41.67;;;;;;;;;;5052117;28;20199;-70
2022/01/13 04:26:17;;;;;;;93.07;41.23;;;;;;;;;;5051740;28;20196;-70
2022/01/13 04:28:44;;;;;;;91.50;41.27;;;;;;;;;;5019903;28;20623;-69
2022/01/13 04:31:12;;;;;;;95.07;41.13;;;;;;;;;;5052009;28;20232;-70
2022/01/13 04:33:39;;;;;;;93.63;41.23;;;;;;;;;;5068475;28;20192;-70
2022/01/13 04:36:08;;;;;;;92.60;39.47;;;;;;;;;;5052018;28;20220;-72
2022/01/13 04:38:36;;;;;;;92.30;39.03;;;;;;;;;;5051697;28;20681;-72
2022/01/13 04:41:04;;;;;;;86.67;39.30;;;;;;;;;;5053018;28;20303;-71
2022/01/13 04:43:32;;;;;;;82.80;37.87;;;;;;;;;;5053449;28;20234;-72
2022/01/13 04:46:00;;;;;;;80.03;38.50;;;;;;;;;;5053088;28;20706;-71
2022/01/13 04:48:28;;;;;;;83.73;37.97;;;;;;;;;;5052936;28;20192;-71
2022/01/13 04:50:55;;;;;;;86.03;36.47;;;;;;;;;;5052496;28;20685;-71
2022/01/13 04:53:22;;;;;;;73.53;35.00;;;;;;;;;;5051102;28;20245;-72
2022/01/13 04:55:52;;;;;;;83.23;35.27;;;;;;;;;;5053040;28;20200;-72
2022/01/13 04:58:22;;;;;;;82.50;37.90;;;;;;;;;;5035711;28;20262;-72
2022/01/13 05:00:50;;;;;;;83.00;37.40;;;;;;;;;;5052517;28;20626;-72
2022/01/13 05:03:17;;;;;;;81.57;37.23;;;;;;;;;;5051621;28;20286;-71
2022/01/13 05:05:44;;;;;;;93.47;40.30;;;;;;;;;;5047533;28;20322;-72
2022/01/13 05:08:16;;;;;;;88.57;39.67;;;;;;;;;;5048297;28;20795;-72
2022/01/13 05:10:43;;;;;;;84.73;35.30;;;;;;;;;;5051325;28;20236;-71
2022/01/13 05:13:11;;;;;;;81.27;37.20;;;;;;;;;;5066473;28;20281;-72
2022/01/13 05:15:41;;;;;;;89.77;37.93;;;;;;;;;;5033495;28;20235;-72
2022/01/13 05:19:12;;;;;;;85.33;36.90;;;;;;;;;;5050752;28;20338;-72
2022/01/13 05:21:05;;;;;;;79.37;34.37;;;;;;;;;;5037639;28;20248;-71
2022/01/13 05:23:33;;;;;;;88.70;35.83;;;;;;;;;;5051759;28;20580;-71
2022/01/13 05:26:00;;;;;;;81.80;34.63;;;;;;;;;;5050639;28;20242;-72
2022/01/13 05:28:27;;;;;;;87.13;39.00;;;;;;;;;;5051769;28;20311;-72
2022/01/13 05:30:55;;;;;;;86.23;37.27;;;;;;;;;;5051334;28;20322;-72
2022/01/13 05:33:22;;;;;;;92.33;39.27;;;;;;;;;;5050348;28;20263;-70
2022/01/13 05:35:49;;;;;;;88.90;36.63;;;;;;;;;;5051202;28;20228;-70
2022/01/13 05:38:18;;;;;;;81.03;33.87;;;;;;;;;;5051877;28;20623;-71
2022/01/13 05:40:46;;;;;;;90.07;37.90;;;;;;;;;;5049797;28;20243;-69
2022/01/13 05:43:13;;;;;;;87.80;37.07;;;;;;;;;;5034460;28;20221;-70
2022/01/13 05:45:40;;;;;;;86.13;34.87;;;;;;;;;;5031565;28;20703;-70
2022/01/13 05:48:08;;;;;;;82.47;34.47;;;;;;;;;;5031866;28;20248;-70
2022/01/13 05:50:36;;;;;;;85.87;33.30;;;;;;;;;;5037389;28;20228;-70
2022/01/13 05:53:04;;;;;;;93.80;35.37;;;;;;;;;;5050845;28;20717;-70
2022/01/13 05:55:32;;;;;;;93.93;38.33;;;;;;;;;;5050285;28;20239;-70
2022/01/13 05:57:59;;;;;;;94.73;36.00;;;;;;;;;;5051346;28;20232;-70
2022/01/13 06:00:27;;;;;;;89.50;36.03;;;;;;;;;;5033887;28;20236;-70
2022/01/13 06:02:54;;;;;;;106.50;39.10;;;;;;;;;;5066683;28;20278;-70
2022/01/13 06:05:21;;;;;;;97.77;39.17;;;;;;;;;;5020306;28;20216;-71
2022/01/13 06:07:50;;;;;;;103.93;38.50;;;;;;;;;;5054814;28;20310;-70
2022/01/13 06:10:19;;;;;;;97.23;35.80;;;;;;;;;;5069845;28;20710;-69
2022/01/13 06:12:52;;;;;;;101.93;39.67;;;;;;;;;;5053510;28;20240;-71
2022/01/13 06:15:22;;;;;;;100.97;36.57;;;;;;;;;;5052109;28;20651;-70
2022/01/13 06:17:52;;;;;;;104.13;36.70;;;;;;;;;;5043307;28;20275;-71
2022/01/13 06:20:20;;;;;;;101.87;37.53;;;;;;;;;;5041073;28;20269;-69
2022/01/13 06:22:49;;;;;;;96.07;35.33;;;;;;;;;;5011302;28;20633;-70
2022/01/13 06:25:21;;;;;;;105.23;38.53;;;;;;;;;;5043258;28;20192;-70
2022/01/13 06:27:54;;;;;;;102.57;38.30;;;;;;;;;;5037783;28;20234;-70
2022/01/13 06:30:41;;;;;;;113.40;36.57;;;;;;;;;;5034390;28;20240;-70
2022/01/13 06:33:08;;;;;;;103.53;35.33;;;;;;;;;;5000791;28;20208;-70
2022/01/13 06:35:36;;;;;;;94.90;34.63;;;;;;;;;;5033349;28;20554;-71
2022/01/13 06:38:04;;;;;;;104.30;36.93;;;;;;;;;;5034576;28;20207;-70
2022/01/13 06:40:31;;;;;;;116.23;39.10;;;;;;;;;;5033187;28;20212;-70
2022/01/13 06:42:58;;;;;;;111.20;37.53;;;;;;;;;;5034613;28;20291;-70
2022/01/13 06:45:26;;;;;;;114.13;36.40;;;;;;;;;;5034145;28;20207;-70
2022/01/13 06:47:53;;;;;;;119.63;38.73;;;;;;;;;;5034273;28;20255;-70
2022/01/13 06:50:20;;;;;;;123.93;37.10;;;;;;;;;;5033034;28;20200;-70
2022/01/13 06:52:48;;;;;;;124.27;39.40;;;;;;;;;;5034046;28;20268;-71
2022/01/13 06:55:15;;;;;;;114.83;37.47;;;;;;;;;;5033286;28;20209;-70
2022/01/13 06:57:42;;;;;;;116.20;36.10;;;;;;;;;;5033130;28;20579;-73
2022/01/13 07:00:10;;;;;;;129.37;39.17;;;;;;;;;;5034152;28;20220;-70
2022/01/13 07:02:38;;;;;;;112.30;35.50;;;;;;;;;;5034285;28;20251;-70
2022/01/13 07:05:06;;;;;;;124.40;38.00;;;;;;;;;;5032997;28;20235;-71
2022/01/13 07:07:36;;;;;;;118.40;36.40;;;;;;;;;;5016595;28;20201;-70
2022/01/13 07:10:07;;;;;;;115.10;35.80;;;;;;;;;;5033101;28;20534;-70
2022/01/13 07:12:35;;;;;;;117.43;35.77;;;;;;;;;;5032676;28;20279;-70
2022/01/13 07:15:03;;;;;;;123.50;38.27;;;;;;;;;;5016123;28;20530;-70
2022/01/13 07:17:31;;;;;;;113.27;35.23;;;;;;;;;;5016509;28;20196;-70
2022/01/13 07:19:58;;;;;;;106.50;38.70;;;;;;;;;;5033807;28;20683;-70
2022/01/13 07:22:26;;;;;;;123.07;37.50;;;;;;;;;;5032757;28;20197;-70
2022/01/13 07:24:53;;;;;;;101.43;32.33;;;;;;;;;;5032365;28;20205;-70
2022/01/13 07:27:20;;;;;;;98.43;32.90;;;;;;;;;;5032124;28;20203;-70
2022/01/13 07:29:48;;;;;;;101.13;30.37;;;;;;;;;;5033135;28;20197;-70
2022/01/13 07:32:16;;;;;;;113.10;36.73;;;;;;;;;;5032114;28;20181;-70
2022/01/13 07:34:44;;;;;;;117.20;34.90;;;;;;;;;;5032166;28;20616;-71
2022/01/13 07:37:15;;;;;;;116.43;37.77;;;;;;;;;;5016399;28;20188;-71
2022/01/13 07:39:42;;;;;;;108.47;39.73;;;;;;;;;;5051400;28;20668;-71
2022/01/13 07:42:10;;;;;;;105.93;36.27;;;;;;;;;;5034441;28;20247;-71
2022/01/13 07:44:38;;;;;;;108.17;38.03;;;;;;;;;;5051596;28;20226;-70
2022/01/13 07:47:05;;;;;;;93.73;31.10;;;;;;;;;;5052359;28;20200;-70
2022/01/13 07:49:35;;;;;;;86.43;29.83;;;;;;;;;;5052290;28;20669;-70
2022/01/13 07:52:03;;;;;;;102.77;35.40;;;;;;;;;;5052647;28;20666;-70
2022/01/13 07:54:31;;;;;;;105.27;35.57;;;;;;;;;;5053115;28;20196;-70
2022/01/13 07:57:00;;;;;;;78.33;28.70;;;;;;;;;;5052865;28;20639;-70
2022/01/13 07:59:29;;;;;;;118.93;39.87;;;;;;;;;;5053062;28;20198;-70
2022/01/13 08:01:58;;;;;;;105.90;35.83;;;;;;;;;;5051536;28;20223;-70
2022/01/13 08:04:26;;;;;;;99.87;34.33;;;;;;;;;;5051668;28;20192;-70
2022/01/13 08:06:53;;;;;;;99.07;36.47;;;;;;;;;;5051889;28;20192;-70
2022/01/13 08:09:22;;;;;;;94.23;35.30;;;;;;;;;;5051951;28;20196;-70
2022/01/13 08:11:50;;;;;;;119.53;38.90;;;;;;;;;;5051491;28;20656;-71
2022/01/13 08:14:17;;;;;;;114.67;38.97;;;;;;;;;;5051575;28;20199;-70
2022/01/13 08:16:45;;;;;;;102.77;37.77;;;;;;;;;;5051219;28;20188;-71
2022/01/13 08:21:54;;;;;;;106.80;33.60;;;;;;;;;;5052484;28;20275;-71
2022/01/13 08:24:21;;;;;;;107.97;38.93;;;;;;;;;;5050955;28;20876;-70
2022/01/13 08:26:48;;;;;;;120.83;40.43;;;;;;;;;;5051766;28;20195;-70
2022/01/13 08:29:16;;;;;;;123.97;41.60;;;;;;;;;;5018788;28;20206;-70
2022/01/13 08:31:45;;;;;;;119.43;37.93;;;;;;;;;;5052050;28;20231;-70
2022/01/13 08:34:14;;;;;;;110.07;38.07;;;;;;;;;;5035524;28;20269;-70
2022/01/13 08:36:43;;;;;;;124.97;37.93;;;;;;;;;;5051799;28;20191;-70
2022/01/13 08:39:10;;;;;;;117.00;40.13;;;;;;;;;;5051392;28;20196;-70
2022/01/13 08:41:40;;;;;;;107.27;36.50;;;;;;;;;;5051232;28;20751;-71
2022/01/13 08:44:09;;;;;;;126.07;38.30;;;;;;;;;;5052408;28;20195;-70
2022/01/13 08:46:37;;;;;;;110.77;36.50;;;;;;;;;;5034780;28;20220;-70
2022/01/13 08:49:04;;;;;;;101.20;34.90;;;;;;;;;;5051392;28;20529;-70
2022/01/13 08:51:32;;;;;;;104.77;36.23;;;;;;;;;;5051312;28;20210;-70
2022/01/13 08:53:59;;;;;;;108.93;38.50;;;;;;;;;;5051155;28;20192;-70
2022/01/13 08:56:27;;;;;;;87.60;33.20;;;;;;;;;;5051085;28;20207;-71
2022/01/13 08:58:55;;;;;;;95.80;36.33;;;;;;;;;;5034478;28;20689;-70
2022/01/13 09:01:22;;;;;;;92.03;32.67;;;;;;;;;;5052237;28;20747;-70
2022/01/13 09:03:49;;;;;;;110.00;38.33;;;;;;;;;;5050304;28;20191;-70
2022/01/13 09:06:17;;;;;;;103.07;32.80;;;;;;;;;;5052183;28;20220;-70
2022/01/13 09:08:44;;;;;;;95.43;35.60;;;;;;;;;;5050960;28;20196;-70
2022/01/13 09:11:12;;;;;;;77.87;28.07;;;;;;;;;;5052221;28;20223;-71
2022/01/13 09:13:39;;;;;;;92.10;34.23;;;;;;;;;;5052190;28;20697;-70
2022/01/13 09:16:15;;;;;;;94.80;35.47;;;;;;;;;;5051707;28;20595;-70
2022/01/13 09:21:27;;;;;;;82.27;32.00;;;;;;;;;;5050603;28;20204;-70
2022/01/13 09:23:55;;;;;;;83.93;30.30;;;;;;;;;;5050948;28;20712;-70
2022/01/13 09:26:22;;;;;;;85.23;32.53;;;;;;;;;;5050639;28;20196;-70
2022/01/13 09:28:49;;;;;;;83.47;32.10;;;;;;;;;;5051918;28;20192;-71
2022/01/13 09:31:17;;;;;;;88.93;35.27;;;;;;;;;;5050681;28;20242;-70
2022/01/13 09:33:45;;;;;;;94.43;33.23;;;;;;;;;;5034234;28;20199;-71
2022/01/13 09:36:12;;;;;;;99.53;36.37;;;;;;;;;;5034268;28;20650;-70
2022/01/13 09:38:40;;;;;;;85.70;30.00;;;;;;;;;;5052743;28;20206;-70
2022/01/13 09:41:07;;;;;;;88.57;33.23;;;;;;;;;;5055508;28;20219;-70
2022/01/13 09:43:35;;;;;;;92.37;32.87;;;;;;;;;;5054157;28;20196;-70
2022/01/13 09:46:02;;;;;;;86.30;32.40;;;;;;;;;;5054298;28;20557;-70
2022/01/13 09:48:31;;;;;;;95.37;34.00;;;;;;;;;;5054100;28;20196;-70
2022/01/13 09:50:58;;;;;;;87.67;32.90;;;;;;;;;;5054077;28;20658;-70
2022/01/13 09:53:26;;;;;;;87.33;33.37;;;;;;;;;;5055331;28;20196;-70
2022/01/13 09:55:53;;;;;;;92.43;32.70;;;;;;;;;;5053917;28;20199;-70
2022/01/13 09:58:20;;;;;;;97.77;33.57;;;;;;;;;;5053843;28;20192;-70
2022/01/13 10:00:48;;;;;;;86.57;31.23;;;;;;;;;;5053794;28;20216;-71
2022/01/13 10:03:26;;;;;;;84.27;31.77;;;;;;;;;;5053775;28;20200;-72
2022/01/13 10:06:01;;;;;;;86.30;30.83;;;;;;;;;;5054237;28;20191;-71
2022/01/13 10:08:47;;;;;;;91.10;33.53;;;;;;;;;;5053809;28;20191;-70
2022/01/13 10:11:34;;;;;;;94.23;31.60;;;;;;;;;;5053854;28;20657;-72
2022/01/13 10:16:22;;;;;;;83.23;32.47;;;;;;;;;;5037549;28;20584;-70
2022/01/13 10:17:09;;;;;;;90.40;33.10;;;;;;;;;;5054602;28;20204;-70
2022/01/13 10:19:40;;;;;;;86.40;29.97;;;;;;;;;;5053833;28;20181;-70
2022/01/13 10:22:10;;;;;;;98.63;35.67;;;;;;;;;;5037357;28;20685;-70
2022/01/13 10:24:42;;;;;;;97.33;33.37;;;;;;;;;;5054755;28;20199;-71
2022/01/13 10:27:12;;;;;;;109.47;36.30;;;;;;;;;;5053848;28;20283;-70
2022/01/13 10:29:50;;;;;;;95.23;35.87;;;;;;;;;;5054761;28;20195;-70
2022/01/13 10:32:40;;;;;;;96.63;31.47;;;;;;;;;;5054566;28;20576;-70
2022/01/13 10:35:16;;;;;;;101.03;37.60;;;;;;;;;;5037100;28;20200;-71
2022/01/13 10:37:46;;;;;;;83.47;31.70;;;;;;;;;;5037248;28;20184;-71
2022/01/13 10:40:26;;;;;;;93.17;34.10;;;;;;;;;;5053473;28;20192;-70
2022/01/13 10:45:32;;;;;;;76.57;30.03;;;;;;;;;;5053331;28;20188;-70
2022/01/13 10:48:10;;;;;;;72.43;27.43;;;;;;;;;;5053373;28;20182;-71
2022/01/13 10:50:47;;;;;;;65.40;28.03;;;;;;;;;;5068990;28;20211;-70
2022/01/13 10:53:21;;;;;;;69.87;24.80;;;;;;;;;;5052971;28;20184;-72
2022/01/13 10:55:57;;;;;;;74.03;28.53;;;;;;;;;;5054281;28;20241;-71
2022/01/13 10:58:28;;;;;;;71.97;29.27;;;;;;;;;;5053190;28;20545;-70
2022/01/13 11:00:57;;;;;;;67.83;27.87;;;;;;;;;;5052913;28;20208;-71
2022/01/13 11:03:28;;;;;;;73.27;28.60;;;;;;;;;;5036702;28;20199;-71
2022/01/13 11:06:01;;;;;;;64.97;26.93;;;;;;;;;;5052967;28;20195;-70
2022/01/13 11:08:49;;;;;;;72.70;29.30;;;;;;;;;;5052563;28;20180;-70
2022/01/13 11:11:27;;;;;;;68.27;28.70;;;;;;;;;;5052949;28;20558;-71
2022/01/13 11:14:09;;;;;;;68.87;29.60;;;;;;;;;;5036411;28;20555;-70
2022/01/13 11:16:38;;;;;;;68.13;28.63;;;;;;;;;;5052437;28;20234;-71
2022/01/13 11:19:06;;;;;;;69.87;30.57;;;;;;;;;;5052013;28;20655;-70
2022/01/13 11:21:33;;;;;;;64.17;27.33;;;;;;;;;;5052785;28;20614;-70
2022/01/13 11:24:01;;;;;;;72.30;28.53;;;;;;;;;;5052580;28;20200;-70
2022/01/13 11:26:30;;;;;;;66.07;28.43;;;;;;;;;;5053290;28;20725;-70
2022/01/13 11:28:58;;;;;;;64.10;29.43;;;;;;;;;;5052500;28;20614;-70
2022/01/13 11:31:26;;;;;;;61.97;25.83;;;;;;;;;;5035858;28;20235;-70
2022/01/13 11:33:53;;;;;;;65.47;30.10;;;;;;;;;;5052071;28;20969;-70
2022/01/13 11:36:21;;;;;;;67.20;29.40;;;;;;;;;;5035899;28;20196;-71
2022/01/13 11:39:00;;;;;;;60.43;26.50;;;;;;;;;;5035840;28;20291;-70
2022/01/13 11:41:28;;;;;;;56.60;26.70;;;;;;;;;;5052166;28;20216;-71
2022/01/13 11:44:17;;;;;;;58.10;24.50;;;;;;;;;;5035828;28;20661;-70
2022/01/13 11:46:46;;;;;;;54.23;24.77;;;;;;;;;;5051883;28;20184;-73
2022/01/13 11:49:19;;;;;;;50.93;23.83;;;;;;;;;;5052299;28;20258;-70
2022/01/13 11:52:30;;;;;;;51.47;25.03;;;;;;;;;;5036248;28;20230;-71
2022/01/13 11:54:44;;;;;;;47.17;24.70;;;;;;;;;;5047344;28;20226;-73
2022/01/13 11:57:35;;;;;;;60.50;27.03;;;;;;;;;;5052067;28;20192;-70
2022/01/13 12:00:04;;;;;;;56.80;26.70;;;;;;;;;;5035285;28;20184;-70
2022/01/13 12:02:43;;;;;;;57.80;27.13;;;;;;;;;;5052899;28;20257;-70
2022/01/13 12:05:17;;;;;;;52.27;26.13;;;;;;;;;;5052039;28;20180;-70
2022/01/13 12:07:50;;;;;;;55.17;26.57;;;;;;;;;;5035244;28;20531;-71
2022/01/13 12:10:21;;;;;;;49.90;25.03;;;;;;;;;;5051890;28;20176;-70
2022/01/13 12:12:52;;;;;;;52.83;26.17;;;;;;;;;;5051573;28;20191;-70
2022/01/13 12:15:21;;;;;;;39.93;21.80;;;;;;;;;;5051399;28;20203;-70
2022/01/13 12:17:50;;;;;;;48.20;23.37;;;;;;;;;;5034930;28;20196;-71
2022/01/13 12:20:43;;;;;;;49.97;24.57;;;;;;;;;;5051104;28;20654;-71
2022/01/13 12:23:41;;;;;;;44.53;23.70;;;;;;;;;;5051824;28;20204;-70
2022/01/13 12:26:31;;;;;;;45.47;23.07;;;;;;;;;;5051508;28;20176;-70
2022/01/13 12:29:21;;;;;;;45.47;25.03;;;;;;;;;;5067664;28;20180;-70
2022/01/13 12:31:53;;;;;;;45.30;25.17;;;;;;;;;;5035131;28;20248;-70
2022/01/13 12:34:42;;;;;;;49.03;24.03;;;;;;;;;;5052605;28;20649;-71
2022/01/13 12:37:09;;;;;;;49.80;23.83;;;;;;;;;;5052296;28;20196;-70
2022/01/13 12:39:52;;;;;;;45.57;23.13;;;;;;;;;;5052360;28;20198;-70
2022/01/13 12:42:27;;;;;;;45.03;22.63;;;;;;;;;;5051128;28;20215;-71
2022/01/13 12:47:38;;;;;;;49.10;25.00;;;;;;;;;;5037088;28;20232;-70
2022/01/13 12:50:19;;;;;;;50.63;25.77;;;;;;;;;;5039521;28;20232;-70
2022/01/13 12:52:47;;;;;;;49.07;23.20;;;;;;;;;;5037850;28;20227;-71
2022/01/13 12:55:15;;;;;;;52.50;26.50;;;;;;;;;;5038163;28;20228;-73
2022/01/13 12:57:44;;;;;;;51.40;24.13;;;;;;;;;;5057398;28;20291;-71
2022/01/13 13:00:12;;;;;;;56.80;26.63;;;;;;;;;;5042630;28;20601;-70
2022/01/13 13:02:50;;;;;;;57.77;25.20;;;;;;;;;;5043568;28;20322;-71
2022/01/13 13:05:28;;;;;;;57.07;26.67;;;;;;;;;;5034019;28;20219;-71
2022/01/13 13:07:56;;;;;;;53.97;26.13;;;;;;;;;;5051411;28;20246;-70
2022/01/13 13:10:23;;;;;;;55.40;27.73;;;;;;;;;;5050407;28;20219;-70
2022/01/13 13:12:52;;;;;;;55.77;26.90;;;;;;;;;;5052603;28;20232;-70
2022/01/13 13:17:49;;;;;;;64.93;27.33;;;;;;;;;;5053856;28;20231;-71
2022/01/13 13:20:27;;;;;;;55.07;25.80;;;;;;;;;;5054563;28;20212;-71
2022/01/13 13:22:58;;;;;;;45.93;24.17;;;;;;;;;;5067288;28;20694;-71
2022/01/13 13:25:39;;;;;;;53.83;27.63;;;;;;;;;;5043759;28;20248;-70
2022/01/13 13:28:38;;;;;;;48.80;24.20;;;;;;;;;;5049217;28;20223;-70
2022/01/13 13:31:23;;;;;;;53.40;25.20;;;;;;;;;;5050995;28;22666;-70
2022/01/13 13:34:13;;;;;;;49.13;23.37;;;;;;;;;;5021142;28;20224;-70
2022/01/13 13:36:47;;;;;;;46.87;23.13;;;;;;;;;;5017644;28;20216;-71
2022/01/13 13:39:16;;;;;;;49.90;25.63;;;;;;;;;;5018009;28;20223;-71
2022/01/13 13:41:46;;;;;;;58.77;25.73;;;;;;;;;;5034231;28;20236;-71
2022/01/13 13:44:34;;;;;;;50.60;25.10;;;;;;;;;;5033976;28;20287;-70
2022/01/13 13:47:19;;;;;;;51.80;24.73;;;;;;;;;;5017062;28;20248;-71
2022/01/13 13:49:48;;;;;;;49.60;25.07;;;;;;;;;;5034233;28;20404;-70
2022/01/13 13:52:16;;;;;;;54.80;29.67;;;;;;;;;;5033755;28;20583;-70
2022/01/13 13:54:49;;;;;;;51.93;24.30;;;;;;;;;;5037791;28;20282;-71
2022/01/13 13:57:17;;;;;;;48.27;22.97;;;;;;;;;;5043095;28;20274;-70
2022/01/13 13:59:54;;;;;;;43.37;21.87;;;;;;;;;;5044627;28;20685;-71
2022/01/13 14:02:33;;;;;;;47.00;22.40;;;;;;;;;;5059803;28;20224;-71
2022/01/13 14:05:04;;;;;;;48.53;24.90;;;;;;;;;;5022930;28;20720;-71
2022/01/13 14:07:39;;;;;;;48.50;23.50;;;;;;;;;;5044292;28;20293;-71
2022/01/13 14:10:12;;;;;;;46.67;24.00;;;;;;;;;;5026505;28;20600;-70
2022/01/13 14:12:43;;;;;;;46.13;20.93;;;;;;;;;;5045052;28;20234;-70
2022/01/13 14:15:14;;;;;;;46.77;23.77;;;;;;;;;;5019409;28;20232;-71
2022/01/13 14:17:43;;;;;;;46.73;21.63;;;;;;;;;;5058872;28;20224;-71
2022/01/13 14:20:13;;;;;;;41.83;21.63;;;;;;;;;;5042235;28;20283;-74
2022/01/13 14:22:41;;;;;;;45.00;22.07;;;;;;;;;;5058635;28;20224;-73
2022/01/13 14:25:15;;;;;;;42.87;19.50;;;;;;;;;;5027182;28;20225;-75
2022/01/13 14:27:50;;;;;;;41.87;21.43;;;;;;;;;;5029639;28;20216;-74
2022/01/13 14:30:37;;;;;;;41.90;21.50;;;;;;;;;;5041414;28;20231;-75
2022/01/13 14:33:15;;;;;;;42.13;21.07;;;;;;;;;;5043106;28;20212;-74
2022/01/13 14:36:06;;;;;;;44.10;21.57;;;;;;;;;;5023820;28;20233;-72
2022/01/13 14:38:50;;;;;;;43.63;22.17;;;;;;;;;;5059228;28;20215;-75
2022/01/13 14:41:27;;;;;;;46.83;21.63;;;;;;;;;;5074406;28;20316;-76
2022/01/13 14:44:04;;;;;;;49.07;24.80;;;;;;;;;;5047857;28;20753;-74
2022/01/13 14:46:41;;;;;;;46.53;22.37;;;;;;;;;;5073893;28;20758;-73
2022/01/13 14:49:10;;;;;;;44.13;21.47;;;;;;;;;;5028736;28;20739;-74
2022/01/13 14:51:42;;;;;;;49.83;22.67;;;;;;;;;;5034224;28;20220;-75
2022/01/13 14:54:10;;;;;;;49.50;23.73;;;;;;;;;;5040959;28;20251;-75
2022/01/13 14:56:37;;;;;;;44.73;22.00;;;;;;;;;;5044509;28;20595;-74
2022/01/13 14:59:05;;;;;;;39.30;20.20;;;;;;;;;;5042448;28;20583;-72
2022/01/13 15:01:37;;;;;;;40.37;21.07;;;;;;;;;;5042307;28;20247;-78
2022/01/13 15:04:05;;;;;;;41.93;21.70;;;;;;;;;;5023965;28;20239;-75
2022/01/13 15:06:34;;;;;;;43.77;23.40;;;;;;;;;;5040589;28;20651;-76
2022/01/13 15:09:02;;;;;;;46.70;24.80;;;;;;;;;;5045240;28;20690;-77
2022/01/13 15:11:29;;;;;;;46.00;23.30;;;;;;;;;;5039747;28;20588;-75
2022/01/13 15:13:57;;;;;;;54.40;25.57;;;;;;;;;;5044458;28;20208;-75